createdAt,value
2022-11-19T00:01:56.472Z,28.58
2022-11-19T00:04:58.783Z,30.87
2022-11-19T00:08:00.984Z,33.07
2022-11-19T00:11:13.895Z,33.53
2022-11-19T00:14:16.305Z,33.47
2022-11-19T00:17:18.522Z,30.58
2022-11-19T00:20:20.724Z,33.70
2022-11-19T00:23:23.483Z,32.50
2022-11-19T00:26:25.796Z,31.52
2022-11-19T00:29:28.008Z,35.00
2022-11-19T00:32:31.216Z,31.42
2022-11-19T00:35:33.677Z,39.23
2022-11-19T00:38:36.000Z,37.80
2022-11-19T00:41:38.202Z,36.22
2022-11-19T00:44:40.746Z,39.50
2022-11-19T00:47:42.960Z,48.50
2022-11-19T00:50:45.188Z,44.10
2022-11-19T00:53:47.765Z,42.37
2022-11-19T00:56:50.038Z,38.42
2022-11-19T00:59:52.267Z,35.15
2022-11-19T01:02:54.463Z,37.00
2022-11-19T01:05:56.721Z,38.80
2022-11-19T01:08:59.116Z,39.33
2022-11-19T01:12:01.454Z,35.90
2022-11-19T01:15:03.803Z,38.95
2022-11-19T01:18:05.986Z,33.85
2022-11-19T01:21:08.911Z,35.70
2022-11-19T01:24:11.164Z,31.93
2022-11-19T01:27:13.337Z,35.85
2022-11-19T01:30:15.514Z,37.55
2022-11-19T01:33:18.169Z,36.25
2022-11-19T01:36:21.860Z,38.00
2022-11-19T01:39:24.054Z,37.20
2022-11-19T01:42:46.440Z,38.88
2022-11-19T01:45:49.565Z,37.28
2022-11-19T01:48:51.761Z,38.78
2022-11-19T01:52:03.229Z,37.07
2022-11-19T01:55:06.368Z,39.50
2022-11-19T01:58:08.864Z,36.40
2022-11-19T02:01:11.347Z,36.30
2022-11-19T02:04:15.517Z,35.47
2022-11-19T02:07:18.897Z,37.37
2022-11-19T02:10:25.108Z,32.07
2022-11-19T02:13:36.996Z,33.80
2022-11-19T02:16:58.129Z,34.50
2022-11-19T02:20:00.304Z,32.95
2022-11-19T02:23:09.059Z,31.43
2022-11-19T02:26:14.358Z,37.80
2022-11-19T02:29:32.183Z,42.17
2022-11-19T02:32:36.118Z,37.38
2022-11-19T02:35:47.599Z,50.50
2022-11-19T02:38:49.801Z,41.13
2022-11-19T02:42:17.644Z,47.70
2022-11-19T02:45:22.695Z,52.95
2022-11-19T02:48:24.934Z,46.88
2022-11-19T02:51:27.164Z,47.90
2022-11-19T02:54:29.326Z,38.23
2022-11-19T02:57:31.579Z,42.30
2022-11-19T03:00:59.553Z,40.85
2022-11-19T03:04:20.493Z,34.88
2022-11-19T03:07:22.924Z,40.17
2022-11-19T03:10:27.771Z,44.83
2022-11-19T03:14:05.541Z,42.87
2022-11-19T03:17:10.782Z,46.30
2022-11-19T03:20:18.785Z,41.90
2022-11-19T03:23:25.926Z,50.80
2022-11-19T03:26:33.767Z,47.23
2022-11-19T03:29:38.637Z,46.13
2022-11-19T03:32:43.164Z,47.00
2022-11-19T03:35:48.094Z,48.38
2022-11-19T03:38:52.332Z,42.60
2022-11-19T03:41:56.632Z,50.77
2022-11-19T03:45:04.441Z,47.60
2022-11-19T03:48:07.165Z,43.38
2022-11-19T03:51:13.722Z,49.60
2022-11-19T03:54:16.820Z,44.53
2022-11-19T03:57:20.553Z,45.87
2022-11-19T04:00:22.793Z,47.90
2022-11-19T04:03:25.328Z,47.92
2022-11-19T04:06:27.595Z,41.35
2022-11-19T04:09:29.767Z,41.45
2022-11-19T04:12:31.931Z,36.47
2022-11-19T04:15:34.087Z,45.13
2022-11-19T04:18:36.236Z,41.30
2022-11-19T04:21:38.432Z,37.65
2022-11-19T04:24:40.973Z,35.17
2022-11-19T04:27:45.550Z,36.73
2022-11-19T04:30:47.802Z,39.57
2022-11-19T04:33:50.023Z,41.80
2022-11-19T04:36:52.254Z,41.85
2022-11-19T04:39:54.436Z,48.05
2022-11-19T04:42:56.613Z,40.20
2022-11-19T04:45:59.829Z,45.87
2022-11-19T04:49:02.122Z,43.55
2022-11-19T04:52:04.426Z,36.90
2022-11-19T04:55:06.744Z,40.42
2022-11-19T04:58:08.981Z,43.43
2022-11-19T05:01:11.523Z,44.00
2022-11-19T05:04:14.140Z,44.88
2022-11-19T05:07:16.853Z,49.00
2022-11-19T05:10:19.086Z,43.53
2022-11-19T05:13:21.297Z,42.87
2022-11-19T05:16:23.511Z,42.30
2022-11-19T05:19:25.722Z,45.72
2022-11-19T05:22:27.902Z,46.75
2022-11-19T05:25:30.216Z,44.92
2022-11-19T05:28:39.205Z,44.87
2022-11-19T05:31:41.954Z,42.03
2022-11-19T05:34:44.810Z,41.35
2022-11-19T05:37:50.675Z,43.72
2022-11-19T05:40:52.919Z,39.75
2022-11-19T05:43:55.899Z,46.07
2022-11-19T05:46:59.984Z,49.90
2022-11-19T05:50:02.153Z,44.20
2022-11-19T05:53:05.593Z,45.40
2022-11-19T05:56:07.830Z,42.22
2022-11-19T05:59:10.042Z,44.27
2022-11-19T06:02:12.587Z,45.10
2022-11-19T06:05:15.009Z,47.40
2022-11-19T06:08:17.469Z,49.17
2022-11-19T06:11:38.413Z,49.97
2022-11-19T06:14:42.394Z,42.43
2022-11-19T06:17:44.685Z,45.37
2022-11-19T06:20:46.886Z,45.65
2022-11-19T06:23:49.057Z,42.50
2022-11-19T06:26:51.411Z,43.00
2022-11-19T06:29:56.386Z,42.50
2022-11-19T06:32:58.785Z,36.60
2022-11-19T06:36:00.956Z,37.38
2022-11-19T06:39:03.320Z,41.08
2022-11-19T06:42:24.189Z,43.53
2022-11-19T06:45:26.590Z,41.03
2022-11-19T06:48:28.899Z,41.60
2022-11-19T06:51:31.131Z,38.80
2022-11-19T06:54:33.306Z,43.10
2022-11-19T06:57:35.605Z,40.35
2022-11-19T07:00:37.796Z,43.43
2022-11-19T07:03:40.070Z,41.80
2022-11-19T07:06:42.222Z,44.17
2022-11-19T07:09:44.529Z,40.65
2022-11-19T07:12:46.705Z,42.42
2022-11-19T07:15:48.931Z,43.13
2022-11-19T07:18:51.259Z,40.07
2022-11-19T07:21:53.880Z,39.03
2022-11-19T07:24:56.402Z,40.13
2022-11-19T07:27:58.968Z,41.75
2022-11-19T07:31:04.827Z,41.97
2022-11-19T07:34:10.974Z,49.70
2022-11-19T07:37:13.297Z,41.67
2022-11-19T07:40:16.836Z,46.15
2022-11-19T07:43:19.105Z,40.95
2022-11-19T07:46:21.709Z,41.90
2022-11-19T07:49:25.132Z,43.67
2022-11-19T07:52:27.625Z,40.45
2022-11-19T07:55:30.233Z,43.45
2022-11-19T07:58:32.596Z,39.17
2022-11-19T08:01:34.993Z,35.37
2022-11-19T08:04:37.222Z,38.83
2022-11-19T08:07:39.989Z,36.53
2022-11-19T08:10:42.570Z,36.92
2022-11-19T08:13:45.023Z,34.75
2022-11-19T08:17:05.917Z,41.03
2022-11-19T08:20:08.808Z,38.13
2022-11-19T08:23:11.816Z,36.65
2022-11-19T08:26:14.696Z,31.35
2022-11-19T08:29:17.870Z,36.03
2022-11-19T08:32:20.088Z,37.80
2022-11-19T08:35:22.400Z,40.73
2022-11-19T08:38:24.573Z,39.65
2022-11-19T08:41:45.624Z,34.60
2022-11-19T08:44:47.916Z,34.15
2022-11-19T08:47:50.462Z,35.20
2022-11-19T08:50:53.962Z,32.47
2022-11-19T08:53:56.211Z,34.75
2022-11-19T08:56:58.519Z,34.28
2022-11-19T09:00:05.943Z,33.45
2022-11-19T09:03:08.900Z,32.20
2022-11-19T09:06:11.685Z,38.03
2022-11-19T09:09:13.946Z,30.88
2022-11-19T09:12:17.485Z,31.90
2022-11-19T09:15:20.308Z,31.65
2022-11-19T09:18:22.603Z,34.30
2022-11-19T09:21:24.873Z,33.00
2022-11-19T09:24:27.645Z,32.65
2022-11-19T09:27:30.894Z,37.58
2022-11-19T09:30:33.338Z,37.10
2022-11-19T09:33:36.881Z,33.43
2022-11-19T09:36:39.219Z,32.90
2022-11-19T09:39:41.554Z,31.00
2022-11-19T09:42:49.906Z,40.58
2022-11-19T09:45:58.257Z,37.17
2022-11-19T09:49:02.261Z,33.75
2022-11-19T09:52:06.649Z,31.17
2022-11-19T09:55:13.664Z,32.38
2022-11-19T09:58:18.715Z,35.75
2022-11-19T10:01:21.315Z,33.22
2022-11-19T10:04:28.289Z,32.90
2022-11-19T10:07:49.311Z,31.40
2022-11-19T10:11:07.058Z,34.95
2022-11-19T10:14:28.102Z,34.45
2022-11-19T10:17:33.401Z,32.30
2022-11-19T10:20:44.919Z,36.92
2022-11-19T10:23:47.104Z,28.67
2022-11-19T10:26:54.936Z,30.02
2022-11-19T10:30:00.110Z,32.72
2022-11-19T10:33:04.798Z,30.63
2022-11-19T10:36:09.271Z,33.03
2022-11-19T10:39:16.533Z,29.60
2022-11-19T10:42:21.975Z,32.60
2022-11-19T10:45:25.774Z,33.90
2022-11-19T10:48:51.316Z,31.85
2022-11-19T10:51:53.646Z,28.23
2022-11-19T10:54:58.653Z,30.13
2022-11-19T10:58:19.931Z,33.75
2022-11-19T11:01:22.224Z,26.83
2022-11-19T11:04:26.113Z,30.08
2022-11-19T11:07:49.822Z,29.02
2022-11-19T11:10:52.912Z,31.03
2022-11-19T11:14:18.070Z,31.05
2022-11-19T11:17:31.461Z,31.33
2022-11-19T11:20:33.963Z,30.60
2022-11-19T11:23:46.192Z,29.80
2022-11-19T11:26:48.429Z,35.70
2022-11-19T11:30:04.256Z,27.70
2022-11-19T11:33:25.153Z,31.13
2022-11-19T11:36:28.382Z,31.02
2022-11-19T11:39:32.370Z,29.95
2022-11-19T11:42:34.897Z,32.73
2022-11-19T11:45:37.403Z,30.83
2022-11-19T11:48:44.375Z,30.85
2022-11-19T11:51:47.874Z,31.00
2022-11-19T11:54:53.973Z,34.03
2022-11-19T11:57:57.587Z,30.20
2022-11-19T12:01:18.331Z,33.42
2022-11-19T12:04:20.884Z,29.95
2022-11-19T12:07:23.138Z,31.33
2022-11-19T12:10:27.336Z,33.40
2022-11-19T12:13:48.738Z,31.97
2022-11-19T12:16:54.355Z,32.63
2022-11-19T12:19:59.659Z,33.67
2022-11-19T12:23:08.055Z,32.47
2022-11-19T12:26:19.666Z,32.47
2022-11-19T12:29:23.493Z,30.70
2022-11-19T12:32:41.081Z,30.75
2022-11-19T12:35:50.566Z,30.55
2022-11-19T12:39:02.553Z,31.30
2022-11-19T12:42:20.340Z,32.22
2022-11-19T12:45:25.903Z,29.10
2022-11-19T12:48:34.276Z,31.85
2022-11-19T12:51:55.310Z,31.98
2022-11-19T12:55:00.636Z,31.77
2022-11-19T12:58:13.989Z,32.00
2022-11-19T13:01:21.263Z,32.13
2022-11-19T13:04:26.819Z,30.55
2022-11-19T13:07:32.540Z,29.95
2022-11-19T13:10:45.515Z,31.75
2022-11-19T13:13:53.974Z,31.60
2022-11-19T13:16:57.049Z,29.23
2022-11-19T13:20:04.484Z,35.60
2022-11-19T13:23:07.184Z,28.98
2022-11-19T13:26:29.601Z,30.52
2022-11-19T13:29:47.024Z,29.58
2022-11-19T13:33:01.546Z,30.20
2022-11-19T13:36:24.415Z,27.90
2022-11-19T13:39:31.473Z,32.15
2022-11-19T13:43:17.252Z,28.73
2022-11-19T13:46:25.138Z,28.80
2022-11-19T13:49:27.455Z,28.00
2022-11-19T13:52:37.200Z,32.15
2022-11-19T13:55:40.956Z,28.38
2022-11-19T13:58:55.003Z,28.85
2022-11-19T14:02:03.371Z,30.50
2022-11-19T14:05:24.292Z,29.30
2022-11-19T14:08:32.751Z,29.83
2022-11-19T14:11:41.179Z,32.05
2022-11-19T14:15:14.312Z,30.67
2022-11-19T14:18:38.263Z,33.20
2022-11-19T14:21:59.649Z,37.80
2022-11-19T14:25:20.522Z,37.33
2022-11-19T14:28:42.411Z,35.08
2022-11-19T14:32:03.191Z,31.13
2022-11-19T14:35:07.488Z,29.73
2022-11-19T14:38:19.097Z,31.80
2022-11-19T14:41:26.083Z,35.58
2022-11-19T14:44:28.334Z,33.65
2022-11-19T14:47:34.016Z,36.75
2022-11-19T14:50:36.760Z,35.00
2022-11-19T14:53:48.496Z,30.37
2022-11-19T14:57:01.616Z,36.85
2022-11-19T15:00:27.495Z,38.40
2022-11-19T15:03:30.607Z,36.95
2022-11-19T15:06:37.003Z,43.77
2022-11-19T15:09:51.791Z,40.30
2022-11-19T15:13:23.111Z,36.92
2022-11-19T15:16:26.423Z,31.83
2022-11-19T15:19:37.587Z,34.35
2022-11-19T15:22:44.771Z,36.00
2022-11-19T15:25:50.225Z,35.07
2022-11-19T15:29:04.861Z,42.35
2022-11-19T15:32:25.994Z,37.05
2022-11-19T15:35:31.455Z,38.47
2022-11-19T15:38:38.212Z,33.47
2022-11-19T15:41:43.794Z,34.37
2022-11-19T15:44:57.501Z,32.50
2022-11-19T15:48:21.082Z,38.13
2022-11-19T15:51:23.675Z,34.05
2022-11-19T15:54:27.252Z,31.17
2022-11-19T15:57:29.765Z,34.50
2022-11-19T16:00:32.118Z,34.80
2022-11-19T16:03:37.380Z,31.70
2022-11-19T16:06:44.829Z,37.08
2022-11-19T16:09:48.946Z,36.57
2022-11-19T16:13:13.822Z,33.73
2022-11-19T16:16:39.851Z,34.17
2022-11-19T16:19:42.191Z,33.38
2022-11-19T16:22:53.518Z,32.45
2022-11-19T16:25:55.735Z,33.43
2022-11-19T16:28:58.426Z,37.47
2022-11-19T16:32:00.742Z,35.05
2022-11-19T16:35:10.770Z,33.63
2022-11-19T16:38:17.599Z,38.58
2022-11-19T16:41:40.378Z,35.03
2022-11-19T16:44:44.794Z,29.67
2022-11-19T16:47:51.921Z,38.67
2022-11-19T16:50:54.200Z,35.13
2022-11-19T16:53:58.120Z,34.33
2022-11-19T16:57:00.489Z,31.37
2022-11-19T17:00:04.935Z,38.07
2022-11-19T17:03:23.706Z,31.05
2022-11-19T17:06:29.562Z,33.13
2022-11-19T17:09:41.671Z,31.95
2022-11-19T17:12:51.078Z,32.13
2022-11-19T17:15:53.497Z,30.93
2022-11-19T17:18:55.736Z,29.35
2022-11-19T17:22:00.621Z,31.17
2022-11-19T17:25:04.155Z,32.58
2022-11-19T17:28:06.454Z,29.17
2022-11-19T17:31:26.347Z,35.97
2022-11-19T17:34:33.248Z,34.15
2022-11-19T17:37:35.513Z,31.08
2022-11-19T17:40:48.765Z,32.60
2022-11-19T17:44:09.873Z,32.07
2022-11-19T17:47:21.187Z,37.23
2022-11-19T17:50:24.509Z,37.20
2022-11-19T17:53:26.811Z,37.45
2022-11-19T17:56:29.447Z,34.60
2022-11-19T17:59:31.988Z,36.23
2022-11-19T18:02:34.615Z,40.53
2022-11-19T18:05:36.914Z,41.03
2022-11-19T18:08:41.997Z,40.50
2022-11-19T18:11:44.329Z,35.63
2022-11-19T18:14:46.907Z,41.37
2022-11-19T18:17:49.354Z,41.90
2022-11-19T18:20:51.952Z,41.90
2022-11-19T18:23:54.323Z,37.33
2022-11-19T18:26:57.169Z,38.70
2022-11-19T18:29:59.390Z,38.03
2022-11-19T18:33:01.985Z,35.50
2022-11-19T18:36:04.519Z,36.15
2022-11-19T18:39:06.847Z,36.63
2022-11-19T18:42:10.801Z,39.78
2022-11-19T18:45:13.208Z,38.07
2022-11-19T18:48:15.393Z,34.13
2022-11-19T18:51:18.914Z,37.53
2022-11-19T18:54:21.411Z,36.67
2022-11-19T18:57:24.013Z,35.10
2022-11-19T19:00:26.536Z,36.83
2022-11-19T19:03:29.040Z,35.73
2022-11-19T19:06:31.671Z,32.03
2022-11-19T19:09:34.307Z,35.65
2022-11-19T19:12:36.649Z,39.08
2022-11-19T19:15:39.260Z,35.83
2022-11-19T19:18:41.411Z,36.17
2022-11-19T19:21:44.043Z,35.58
2022-11-19T19:24:47.364Z,30.80
2022-11-19T19:27:49.719Z,32.63
2022-11-19T19:30:56.856Z,31.70
2022-11-19T19:33:59.373Z,33.23
2022-11-19T19:37:02.324Z,30.08
2022-11-19T19:40:05.098Z,31.05
2022-11-19T19:43:07.494Z,36.33
2022-11-19T19:46:15.503Z,28.90
2022-11-19T19:49:17.770Z,30.73
2022-11-19T19:52:20.127Z,35.28
2022-11-19T19:55:22.457Z,37.80
2022-11-19T19:58:27.916Z,31.48
2022-11-19T20:01:31.807Z,34.63
2022-11-19T20:04:34.409Z,31.80
2022-11-19T20:07:36.997Z,32.65
2022-11-19T20:10:39.443Z,26.63
2022-11-19T20:13:42.273Z,33.30
2022-11-19T20:16:44.920Z,33.43
2022-11-19T20:19:47.204Z,30.47
2022-11-19T20:22:49.535Z,27.02
2022-11-19T20:25:55.650Z,27.10
2022-11-19T20:28:59.417Z,27.33
2022-11-19T20:32:01.795Z,23.73
2022-11-19T20:35:04.294Z,24.63
2022-11-19T20:38:06.676Z,28.77
2022-11-19T20:41:32.868Z,26.65
2022-11-19T20:44:35.187Z,27.40
2022-11-19T20:47:37.801Z,27.57
2022-11-19T20:50:40.188Z,29.33
2022-11-19T20:53:43.220Z,27.10
2022-11-19T20:56:45.617Z,30.88
2022-11-19T20:59:47.837Z,26.65
2022-11-19T21:02:50.212Z,27.17
2022-11-19T21:05:59.503Z,27.40
2022-11-19T21:09:02.397Z,30.50
2022-11-19T21:12:04.848Z,28.90
2022-11-19T21:15:09.651Z,28.80
2022-11-19T21:18:12.190Z,27.17
2022-11-19T21:21:15.366Z,21.73
2022-11-19T21:24:17.716Z,27.67
2022-11-19T21:27:20.052Z,26.52
2022-11-19T21:30:22.750Z,29.58
2022-11-19T21:33:28.442Z,28.90
2022-11-19T21:36:30.646Z,24.83
2022-11-19T21:39:32.927Z,25.33
2022-11-19T21:42:35.175Z,28.63
2022-11-19T21:45:40.626Z,23.85
2022-11-19T21:48:43.273Z,28.97
2022-11-19T21:51:45.627Z,21.80
2022-11-19T21:54:47.903Z,26.42
2022-11-19T21:57:50.205Z,23.60
2022-11-19T22:00:57.217Z,27.20
2022-11-19T22:03:59.420Z,25.73
2022-11-19T22:07:03.435Z,28.37
2022-11-19T22:10:06.983Z,23.92
2022-11-19T22:13:09.209Z,21.42
2022-11-19T22:16:11.544Z,20.63
2022-11-19T22:19:13.936Z,22.77
2022-11-19T22:22:16.489Z,20.80
2022-11-19T22:25:18.994Z,19.65
2022-11-19T22:28:21.233Z,24.63
2022-11-19T22:31:24.478Z,19.65
2022-11-19T22:34:26.967Z,24.10
2022-11-19T22:37:29.216Z,25.60
2022-11-19T22:40:31.746Z,20.10
2022-11-19T22:43:34.847Z,22.33
2022-11-19T22:46:37.133Z,26.40
2022-11-19T22:49:39.370Z,23.13
2022-11-19T22:52:41.677Z,20.90
2022-11-19T22:55:43.873Z,21.83
2022-11-19T22:58:46.756Z,20.75
2022-11-19T23:01:49.003Z,23.85
2022-11-19T23:04:52.251Z,18.93
2022-11-19T23:07:54.725Z,23.57
2022-11-19T23:10:57.884Z,19.35
2022-11-19T23:14:00.205Z,21.35
2022-11-19T23:17:02.681Z,15.50
2022-11-19T23:20:05.248Z,18.30
2022-11-19T23:23:07.530Z,22.07
2022-11-19T23:26:10.534Z,14.75
2022-11-19T23:29:12.821Z,16.83
2022-11-19T23:32:15.105Z,17.90
2022-11-19T23:35:17.364Z,18.20
2022-11-19T23:38:19.581Z,17.77
2022-11-19T23:41:22.218Z,15.02
2022-11-19T23:44:24.463Z,15.60
2022-11-19T23:47:26.965Z,18.77
2022-11-19T23:50:29.237Z,19.63
2022-11-19T23:53:31.995Z,16.87
2022-11-19T23:56:35.920Z,18.55
2022-11-19T23:59:38.409Z,18.45
